createdAt,value
2022-08-22T00:02:43.366Z,73201.31
2022-08-22T00:05:13.354Z,73442.00
2022-08-22T00:15:42.522Z,73468.31
2022-08-22T00:26:03.698Z,73494.59
2022-08-22T00:36:27.188Z,73504.72
2022-08-22T00:46:46.490Z,73512.81
2022-08-22T00:57:10.311Z,73516.84
2022-08-22T01:07:51.163Z,73549.22
2022-08-22T01:18:27.243Z,73545.16
2022-08-22T01:28:47.079Z,73571.47
2022-08-22T01:39:02.285Z,73583.59
2022-08-22T01:49:13.619Z,73587.66
2022-08-22T01:59:34.002Z,73603.81
2022-08-22T02:09:49.925Z,73622.03
2022-08-22T02:20:11.414Z,73634.16
2022-08-22T02:30:22.784Z,73626.06
2022-08-22T02:40:38.755Z,73617.97
2022-08-22T02:50:47.985Z,73630.13
2022-08-22T03:01:11.715Z,73662.47
2022-08-22T03:11:22.581Z,73666.53
2022-08-22T03:21:42.707Z,73652.38
2022-08-22T03:32:08.615Z,73664.50
2022-08-22T03:42:16.498Z,73682.72
2022-08-22T03:52:59.721Z,73668.56
2022-08-22T04:03:36.333Z,73684.72
2022-08-22T04:14:16.930Z,73698.91
2022-08-22T04:24:43.344Z,73706.97
2022-08-22T04:35:00.682Z,73680.69
2022-08-22T04:45:35.022Z,73727.22
2022-08-22T04:55:57.971Z,73747.44
2022-08-22T05:06:06.301Z,73690.81
2022-08-22T05:16:13.076Z,73524.94
2022-08-22T05:26:18.440Z,73375.25
2022-08-22T05:36:29.370Z,73278.19
2022-08-22T05:46:56.222Z,73162.91
2022-08-22T05:57:14.369Z,73154.81
2022-08-22T06:07:16.444Z,73053.69
2022-08-22T06:17:27.269Z,72982.91
2022-08-22T06:27:31.633Z,73003.13
2022-08-22T06:37:39.138Z,72952.56
2022-08-22T06:47:49.868Z,73075.94
2022-08-22T06:58:04.863Z,73027.38
2022-08-22T07:08:15.926Z,73019.28
2022-08-22T07:18:21.590Z,73132.56
2022-08-22T07:28:50.914Z,73112.34
2022-08-22T07:39:22.541Z,73031.44
2022-08-22T07:49:32.250Z,72972.78
2022-08-22T07:59:38.103Z,72984.91
2022-08-22T08:09:46.166Z,72930.31
2022-08-22T08:19:54.360Z,72910.09
2022-08-22T08:30:19.327Z,72914.13
2022-08-22T08:40:34.562Z,72995.03
2022-08-22T08:51:02.118Z,72982.91
2022-08-22T09:01:27.603Z,72946.50
2022-08-22T09:12:07.050Z,72806.94
2022-08-22T09:22:17.785Z,72845.38
2022-08-22T09:32:29.873Z,72910.09
2022-08-22T09:42:46.426Z,72867.63
2022-08-22T09:53:13.119Z,72875.72
2022-08-22T10:03:27.322Z,72887.84
2022-08-22T10:13:38.678Z,72914.13
2022-08-22T10:24:02.406Z,72948.50
2022-08-22T10:34:10.873Z,72946.50
2022-08-22T10:44:20.814Z,72958.63
2022-08-22T10:54:53.718Z,72970.75
2022-08-22T11:05:24.636Z,73025.38
2022-08-22T11:15:57.391Z,73023.34
2022-08-22T11:26:33.569Z,72960.66
2022-08-22T11:37:11.087Z,72932.34
2022-08-22T11:47:24.190Z,72891.88
2022-08-22T11:57:33.277Z,72869.63
2022-08-22T12:07:50.532Z,72853.47
2022-08-22T12:18:16.376Z,72875.72
2022-08-22T12:28:45.386Z,72895.94
2022-08-22T12:39:00.107Z,72914.13
2022-08-22T12:49:23.756Z,72895.94
2022-08-22T13:00:01.965Z,72869.63
2022-08-22T13:10:18.754Z,72877.72
2022-08-22T13:20:29.400Z,72867.63
2022-08-22T13:30:43.830Z,72853.47
2022-08-22T13:40:49.640Z,72861.56
2022-08-22T13:51:14.871Z,72843.34
2022-08-22T14:01:41.288Z,72837.28
2022-08-22T14:11:50.593Z,72817.06
2022-08-22T14:21:59.524Z,72804.94
2022-08-22T14:32:22.541Z,72798.84
2022-08-22T14:42:44.402Z,72778.63
2022-08-22T14:53:06.936Z,72808.97
2022-08-22T15:03:33.109Z,72796.84
2022-08-22T15:13:37.281Z,72796.84
2022-08-22T15:23:45.137Z,72825.16
2022-08-22T15:34:09.379Z,72833.25
2022-08-22T15:44:30.917Z,72821.09
2022-08-22T15:54:51.250Z,72841.31
2022-08-22T16:05:22.736Z,72861.56
2022-08-22T16:15:56.721Z,72873.69
2022-08-22T16:26:05.934Z,72887.84
2022-08-22T16:36:18.112Z,72906.03
2022-08-22T16:46:33.274Z,72918.19
2022-08-22T16:56:54.313Z,72910.09
2022-08-22T17:07:43.705Z,72932.34
2022-08-22T17:18:14.095Z,72952.56
2022-08-22T17:28:38.038Z,72978.84
2022-08-22T17:38:54.404Z,72997.06
2022-08-22T17:49:22.088Z,73023.34
2022-08-22T17:59:28.051Z,73043.56
2022-08-22T18:09:48.202Z,73077.94
2022-08-22T18:20:07.514Z,73096.16
2022-08-22T18:30:16.762Z,73124.47
2022-08-22T18:40:50.204Z,73146.72
2022-08-22T18:51:25.140Z,73162.91
2022-08-22T19:01:55.605Z,73168.97
2022-08-22T19:12:01.935Z,73183.13
2022-08-22T19:22:36.668Z,73181.09
2022-08-22T19:32:45.710Z,73203.34
2022-08-22T19:42:50.106Z,73211.44
2022-08-22T19:53:00.518Z,73229.63
2022-08-22T20:03:14.769Z,73259.97
2022-08-22T20:13:25.875Z,73268.06
2022-08-22T20:23:32.616Z,73290.31
2022-08-22T20:33:46.038Z,73298.41
2022-08-22T20:43:53.227Z,73318.63
2022-08-22T20:54:10.262Z,73334.81
2022-08-22T21:04:21.176Z,73363.13
2022-08-22T21:14:34.498Z,73359.09
2022-08-22T21:24:36.584Z,73379.31
2022-08-22T21:34:47.244Z,73391.44
2022-08-22T21:45:30.843Z,73403.56
2022-08-22T21:55:38.698Z,73407.63
2022-08-22T22:05:46.640Z,73413.69
2022-08-22T22:15:53.809Z,73423.81
2022-08-22T22:25:57.493Z,73423.81
2022-08-22T22:36:04.665Z,73423.81
2022-08-22T22:46:11.579Z,73448.06
2022-08-22T22:56:21.531Z,73462.25
2022-08-22T23:06:32.499Z,73476.41
2022-08-22T23:16:39.723Z,73496.63
2022-08-22T23:26:44.509Z,73524.94
2022-08-22T23:36:50.345Z,73522.91
2022-08-22T23:46:52.767Z,73520.91
2022-08-22T23:57:01.799Z,73565.41
